sensor_id;sensor_type;location;lat;lon;timestamp;temperature;humidity
1301;DHT22;59099;48.806;9.160;2022-08-21T00:01:32;17.50;99.90
1301;DHT22;59099;48.806;9.160;2022-08-21T00:04:03;17.50;99.90
1301;DHT22;59099;48.806;9.160;2022-08-21T00:06:29;17.50;99.90
1301;DHT22;59099;48.806;9.160;2022-08-21T00:08:54;17.50;99.90
1301;DHT22;59099;48.806;9.160;2022-08-21T00:11:20;17.40;99.90
1301;DHT22;59099;48.806;9.160;2022-08-21T00:13:46;17.30;99.90
1301;DHT22;59099;48.806;9.160;2022-08-21T00:16:12;17.40;99.90
1301;DHT22;59099;48.806;9.160;2022-08-21T00:18:37;17.40;99.90
1301;DHT22;59099;48.806;9.160;2022-08-21T00:21:03;17.40;99.90
1301;DHT22;59099;48.806;9.160;2022-08-21T00:23:33;17.10;99.90
1301;DHT22;59099;48.806;9.160;2022-08-21T00:25:59;17.00;99.90
1301;DHT22;59099;48.806;9.160;2022-08-21T00:28:24;17.00;99.90
1301;DHT22;59099;48.806;9.160;2022-08-21T00:30:50;16.90;99.90
1301;DHT22;59099;48.806;9.160;2022-08-21T00:33:16;16.80;99.90
1301;DHT22;59099;48.806;9.160;2022-08-21T00:35:42;16.70;99.90
1301;DHT22;59099;48.806;9.160;2022-08-21T00:38:09;16.70;99.90
1301;DHT22;59099;48.806;9.160;2022-08-21T00:40:45;16.60;99.90
1301;DHT22;59099;48.806;9.160;2022-08-21T00:43:14;16.60;99.90
1301;DHT22;59099;48.806;9.160;2022-08-21T00:45:40;16.50;99.90
1301;DHT22;59099;48.806;9.160;2022-08-21T00:48:06;16.50;99.90
1301;DHT22;59099;48.806;9.160;2022-08-21T00:50:35;16.40;99.90
1301;DHT22;59099;48.806;9.160;2022-08-21T00:53:07;16.40;99.90
1301;DHT22;59099;48.806;9.160;2022-08-21T00:55:36;16.30;99.90
1301;DHT22;59099;48.806;9.160;2022-08-21T00:58:04;16.30;99.90
1301;DHT22;59099;48.806;9.160;2022-08-21T01:00:34;16.30;99.90
1301;DHT22;59099;48.806;9.160;2022-08-21T01:03:04;16.30;99.90
1301;DHT22;59099;48.806;9.160;2022-08-21T01:05:32;16.20;99.90
1301;DHT22;59099;48.806;9.160;2022-08-21T01:07:57;16.10;99.90
1301;DHT22;59099;48.806;9.160;2022-08-21T01:10:24;16.00;99.90
1301;DHT22;59099;48.806;9.160;2022-08-21T01:12:51;16.00;99.90
1301;DHT22;59099;48.806;9.160;2022-08-21T01:15:18;16.00;99.90
1301;DHT22;59099;48.806;9.160;2022-08-21T01:17:46;15.90;99.90
1301;DHT22;59099;48.806;9.160;2022-08-21T01:20:12;15.80;99.90
1301;DHT22;59099;48.806;9.160;2022-08-21T01:22:38;15.80;99.90
1301;DHT22;59099;48.806;9.160;2022-08-21T01:25:05;15.70;99.90
1301;DHT22;59099;48.806;9.160;2022-08-21T01:27:32;15.80;99.90
1301;DHT22;59099;48.806;9.160;2022-08-21T01:30:05;15.80;99.90
1301;DHT22;59099;48.806;9.160;2022-08-21T01:32:33;15.70;99.90
1301;DHT22;59099;48.806;9.160;2022-08-21T01:34:59;15.70;99.90
1301;DHT22;59099;48.806;9.160;2022-08-21T01:37:25;15.70;99.90
1301;DHT22;59099;48.806;9.160;2022-08-21T01:39:51;15.60;99.90
1301;DHT22;59099;48.806;9.160;2022-08-21T01:42:17;15.70;99.90
1301;DHT22;59099;48.806;9.160;2022-08-21T01:44:43;15.60;99.90
1301;DHT22;59099;48.806;9.160;2022-08-21T01:47:12;15.50;99.90
1301;DHT22;59099;48.806;9.160;2022-08-21T01:49:39;15.50;99.90
1301;DHT22;59099;48.806;9.160;2022-08-21T01:52:05;15.50;99.90
1301;DHT22;59099;48.806;9.160;2022-08-21T01:54:32;15.40;99.90
1301;DHT22;59099;48.806;9.160;2022-08-21T01:56:58;15.20;99.90
1301;DHT22;59099;48.806;9.160;2022-08-21T01:59:26;15.20;99.90
1301;DHT22;59099;48.806;9.160;2022-08-21T02:01:53;15.10;99.90
1301;DHT22;59099;48.806;9.160;2022-08-21T02:04:22;15.20;99.90
1301;DHT22;59099;48.806;9.160;2022-08-21T02:06:48;15.10;99.90
1301;DHT22;59099;48.806;9.160;2022-08-21T02:09:14;15.10;99.90
1301;DHT22;59099;48.806;9.160;2022-08-21T02:11:40;15.10;99.90
1301;DHT22;59099;48.806;9.160;2022-08-21T02:14:15;15.10;99.90
1301;DHT22;59099;48.806;9.160;2022-08-21T02:16:43;15.20;99.90
1301;DHT22;59099;48.806;9.160;2022-08-21T02:19:10;15.10;99.90
1301;DHT22;59099;48.806;9.160;2022-08-21T02:21:36;15.10;99.90
1301;DHT22;59099;48.806;9.160;2022-08-21T02:24:02;15.20;99.90
1301;DHT22;59099;48.806;9.160;2022-08-21T02:26:28;15.10;99.90
1301;DHT22;59099;48.806;9.160;2022-08-21T02:28:53;15.10;99.90
1301;DHT22;59099;48.806;9.160;2022-08-21T02:31:20;15.00;99.90
1301;DHT22;59099;48.806;9.160;2022-08-21T02:33:46;14.90;99.90
1301;DHT22;59099;48.806;9.160;2022-08-21T02:36:12;14.90;99.90
1301;DHT22;59099;48.806;9.160;2022-08-21T02:38:39;14.80;99.90
1301;DHT22;59099;48.806;9.160;2022-08-21T02:41:09;14.90;99.90
1301;DHT22;59099;48.806;9.160;2022-08-21T02:43:35;14.70;99.90
1301;DHT22;59099;48.806;9.160;2022-08-21T02:46:03;14.70;99.90
1301;DHT22;59099;48.806;9.160;2022-08-21T02:48:32;14.60;99.90
1301;DHT22;59099;48.806;9.160;2022-08-21T02:51:01;14.70;99.90
1301;DHT22;59099;48.806;9.160;2022-08-21T02:53:28;14.50;99.90
1301;DHT22;59099;48.806;9.160;2022-08-21T02:55:57;14.60;99.90
1301;DHT22;59099;48.806;9.160;2022-08-21T02:58:33;14.60;99.90
1301;DHT22;59099;48.806;9.160;2022-08-21T03:01:01;14.50;99.90
1301;DHT22;59099;48.806;9.160;2022-08-21T03:03:27;14.60;99.90
1301;DHT22;59099;48.806;9.160;2022-08-21T03:05:54;14.50;99.90
1301;DHT22;59099;48.806;9.160;2022-08-21T03:08:20;14.50;99.90
1301;DHT22;59099;48.806;9.160;2022-08-21T03:10:52;14.50;99.90
1301;DHT22;59099;48.806;9.160;2022-08-21T03:13:18;14.60;99.90
1301;DHT22;59099;48.806;9.160;2022-08-21T03:15:49;14.40;99.90
1301;DHT22;59099;48.806;9.160;2022-08-21T03:18:15;14.40;99.90
1301;DHT22;59099;48.806;9.160;2022-08-21T03:20:42;14.40;99.90
1301;DHT22;59099;48.806;9.160;2022-08-21T03:23:08;14.30;99.90
1301;DHT22;59099;48.806;9.160;2022-08-21T03:25:35;14.20;99.90
1301;DHT22;59099;48.806;9.160;2022-08-21T03:28:03;14.30;99.90
1301;DHT22;59099;48.806;9.160;2022-08-21T03:30:29;14.20;99.90
1301;DHT22;59099;48.806;9.160;2022-08-21T03:32:57;14.10;99.90
1301;DHT22;59099;48.806;9.160;2022-08-21T03:35:25;14.00;99.90
1301;DHT22;59099;48.806;9.160;2022-08-21T03:37:51;13.90;99.90
1301;DHT22;59099;48.806;9.160;2022-08-21T03:40:18;13.90;99.90
1301;DHT22;59099;48.806;9.160;2022-08-21T03:42:45;13.80;99.90
1301;DHT22;59099;48.806;9.160;2022-08-21T03:45:14;13.80;99.90
1301;DHT22;59099;48.806;9.160;2022-08-21T03:48:00;13.80;99.90
1301;DHT22;59099;48.806;9.160;2022-08-21T03:50:29;13.90;99.90
1301;DHT22;59099;48.806;9.160;2022-08-21T03:52:55;14.00;99.90
1301;DHT22;59099;48.806;9.160;2022-08-21T03:55:22;14.00;99.90
1301;DHT22;59099;48.806;9.160;2022-08-21T03:57:48;14.00;99.90
1301;DHT22;59099;48.806;9.160;2022-08-21T04:00:15;14.10;99.90
1301;DHT22;59099;48.806;9.160;2022-08-21T04:02:42;14.00;99.90
1301;DHT22;59099;48.806;9.160;2022-08-21T04:05:10;13.90;99.90
1301;DHT22;59099;48.806;9.160;2022-08-21T04:07:36;14.00;99.90
1301;DHT22;59099;48.806;9.160;2022-08-21T04:10:06;13.90;99.90
1301;DHT22;59099;48.806;9.160;2022-08-21T04:12:32;13.90;99.90
1301;DHT22;59099;48.806;9.160;2022-08-21T04:14:58;13.70;99.90
1301;DHT22;59099;48.806;9.160;2022-08-21T04:17:24;13.60;99.90
1301;DHT22;59099;48.806;9.160;2022-08-21T04:19:50;13.50;99.90
1301;DHT22;59099;48.806;9.160;2022-08-21T04:22:16;13.60;99.90
1301;DHT22;59099;48.806;9.160;2022-08-21T04:24:42;13.60;99.90
1301;DHT22;59099;48.806;9.160;2022-08-21T04:27:08;13.50;99.90
1301;DHT22;59099;48.806;9.160;2022-08-21T04:29:34;13.50;99.90
1301;DHT22;59099;48.806;9.160;2022-08-21T04:31:59;13.50;99.90
1301;DHT22;59099;48.806;9.160;2022-08-21T04:34:25;13.40;99.90
1301;DHT22;59099;48.806;9.160;2022-08-21T04:36:51;13.40;99.90
1301;DHT22;59099;48.806;9.160;2022-08-21T04:39:17;13.60;99.90
1301;DHT22;59099;48.806;9.160;2022-08-21T04:41:43;13.70;99.90
1301;DHT22;59099;48.806;9.160;2022-08-21T04:44:08;13.70;99.90
1301;DHT22;59099;48.806;9.160;2022-08-21T04:46:34;13.80;99.90
1301;DHT22;59099;48.806;9.160;2022-08-21T04:49:00;13.80;99.90
1301;DHT22;59099;48.806;9.160;2022-08-21T04:51:31;13.70;99.90
1301;DHT22;59099;48.806;9.160;2022-08-21T04:54:20;13.80;99.90
1301;DHT22;59099;48.806;9.160;2022-08-21T04:56:49;13.80;99.90
1301;DHT22;59099;48.806;9.160;2022-08-21T04:59:27;13.80;99.90
1301;DHT22;59099;48.806;9.160;2022-08-21T05:01:53;13.70;99.90
1301;DHT22;59099;48.806;9.160;2022-08-21T05:04:25;13.80;99.90
1301;DHT22;59099;48.806;9.160;2022-08-21T05:06:53;13.80;99.90
1301;DHT22;59099;48.806;9.160;2022-08-21T05:09:21;13.90;99.90
1301;DHT22;59099;48.806;9.160;2022-08-21T05:11:47;13.80;99.90
1301;DHT22;59099;48.806;9.160;2022-08-21T05:14:14;13.70;99.90
1301;DHT22;59099;48.806;9.160;2022-08-21T05:16:41;13.80;99.90
1301;DHT22;59099;48.806;9.160;2022-08-21T05:19:09;13.80;99.90
1301;DHT22;59099;48.806;9.160;2022-08-21T05:21:41;13.80;99.90
1301;DHT22;59099;48.806;9.160;2022-08-21T05:24:07;13.70;99.90
1301;DHT22;59099;48.806;9.160;2022-08-21T05:26:33;13.80;99.90
1301;DHT22;59099;48.806;9.160;2022-08-21T05:28:59;13.80;99.90
1301;DHT22;59099;48.806;9.160;2022-08-21T05:31:25;13.90;99.90
1301;DHT22;59099;48.806;9.160;2022-08-21T05:33:51;14.00;99.90
1301;DHT22;59099;48.806;9.160;2022-08-21T05:36:18;14.00;99.90
1301;DHT22;59099;48.806;9.160;2022-08-21T05:38:44;14.00;99.90
1301;DHT22;59099;48.806;9.160;2022-08-21T05:41:09;14.00;99.90
1301;DHT22;59099;48.806;9.160;2022-08-21T05:43:35;14.10;99.90
1301;DHT22;59099;48.806;9.160;2022-08-21T05:46:03;14.20;99.90
1301;DHT22;59099;48.806;9.160;2022-08-21T05:48:30;14.30;99.90
1301;DHT22;59099;48.806;9.160;2022-08-21T05:50:56;14.50;99.90
1301;DHT22;59099;48.806;9.160;2022-08-21T05:53:23;14.50;99.90
1301;DHT22;59099;48.806;9.160;2022-08-21T05:55:50;14.60;99.90
1301;DHT22;59099;48.806;9.160;2022-08-21T05:58:18;14.60;99.90
1301;DHT22;59099;48.806;9.160;2022-08-21T06:00:46;14.70;99.90
1301;DHT22;59099;48.806;9.160;2022-08-21T06:03:27;14.90;99.90
1301;DHT22;59099;48.806;9.160;2022-08-21T06:05:54;15.10;99.90
1301;DHT22;59099;48.806;9.160;2022-08-21T06:08:20;15.20;99.90
1301;DHT22;59099;48.806;9.160;2022-08-21T06:10:48;15.20;99.90
1301;DHT22;59099;48.806;9.160;2022-08-21T06:13:15;15.20;99.90
1301;DHT22;59099;48.806;9.160;2022-08-21T06:15:42;15.30;99.90
1301;DHT22;59099;48.806;9.160;2022-08-21T06:18:08;15.40;99.90
1301;DHT22;59099;48.806;9.160;2022-08-21T06:20:34;15.60;99.90
1301;DHT22;59099;48.806;9.160;2022-08-21T06:23:00;15.70;99.90
1301;DHT22;59099;48.806;9.160;2022-08-21T06:25:26;16.00;99.90
1301;DHT22;59099;48.806;9.160;2022-08-21T06:27:52;16.10;99.90
1301;DHT22;59099;48.806;9.160;2022-08-21T06:30:18;16.20;99.90
1301;DHT22;59099;48.806;9.160;2022-08-21T06:32:44;16.30;99.90
1301;DHT22;59099;48.806;9.160;2022-08-21T06:35:10;16.30;99.90
1301;DHT22;59099;48.806;9.160;2022-08-21T06:37:35;16.40;99.90
1301;DHT22;59099;48.806;9.160;2022-08-21T06:40:04;16.60;99.90
1301;DHT22;59099;48.806;9.160;2022-08-21T06:42:30;16.70;99.90
1301;DHT22;59099;48.806;9.160;2022-08-21T06:44:57;16.80;99.90
1301;DHT22;59099;48.806;9.160;2022-08-21T06:47:22;16.90;99.90
1301;DHT22;59099;48.806;9.160;2022-08-21T06:49:48;17.10;99.90
1301;DHT22;59099;48.806;9.160;2022-08-21T06:52:14;17.20;99.90
1301;DHT22;59099;48.806;9.160;2022-08-21T06:54:40;17.30;99.90
1301;DHT22;59099;48.806;9.160;2022-08-21T06:57:07;17.50;99.90
1301;DHT22;59099;48.806;9.160;2022-08-21T06:59:33;17.50;99.90
1301;DHT22;59099;48.806;9.160;2022-08-21T07:01:59;17.60;99.90
1301;DHT22;59099;48.806;9.160;2022-08-21T07:04:25;17.70;99.90
1301;DHT22;59099;48.806;9.160;2022-08-21T07:06:51;17.80;99.90
1301;DHT22;59099;48.806;9.160;2022-08-21T07:09:17;17.90;99.90
1301;DHT22;59099;48.806;9.160;2022-08-21T07:11:44;18.00;99.90
1301;DHT22;59099;48.806;9.160;2022-08-21T07:14:12;18.10;99.90
1301;DHT22;59099;48.806;9.160;2022-08-21T07:16:38;18.20;99.90
1301;DHT22;59099;48.806;9.160;2022-08-21T07:19:04;18.30;99.90
1301;DHT22;59099;48.806;9.160;2022-08-21T07:21:29;18.50;99.90
1301;DHT22;59099;48.806;9.160;2022-08-21T07:23:55;18.60;99.90
1301;DHT22;59099;48.806;9.160;2022-08-21T07:26:22;18.70;99.90
1301;DHT22;59099;48.806;9.160;2022-08-21T07:28:49;18.90;99.90
1301;DHT22;59099;48.806;9.160;2022-08-21T07:31:17;19.00;99.90
1301;DHT22;59099;48.806;9.160;2022-08-21T07:33:46;19.10;99.90
1301;DHT22;59099;48.806;9.160;2022-08-21T07:36:12;19.20;99.90
1301;DHT22;59099;48.806;9.160;2022-08-21T07:38:38;19.40;99.90
1301;DHT22;59099;48.806;9.160;2022-08-21T07:41:10;19.50;99.90
1301;DHT22;59099;48.806;9.160;2022-08-21T07:43:38;19.70;99.90
1301;DHT22;59099;48.806;9.160;2022-08-21T07:46:04;19.80;99.90
1301;DHT22;59099;48.806;9.160;2022-08-21T07:48:29;19.80;99.90
1301;DHT22;59099;48.806;9.160;2022-08-21T07:50:55;19.90;99.90
1301;DHT22;59099;48.806;9.160;2022-08-21T07:53:21;20.10;99.90
1301;DHT22;59099;48.806;9.160;2022-08-21T07:55:47;20.20;99.90
1301;DHT22;59099;48.806;9.160;2022-08-21T07:58:13;20.30;99.90
1301;DHT22;59099;48.806;9.160;2022-08-21T08:00:39;20.50;99.90
1301;DHT22;59099;48.806;9.160;2022-08-21T08:03:05;20.60;99.90
1301;DHT22;59099;48.806;9.160;2022-08-21T08:05:32;20.70;99.90
1301;DHT22;59099;48.806;9.160;2022-08-21T08:07:58;20.80;99.90
1301;DHT22;59099;48.806;9.160;2022-08-21T08:10:24;20.90;99.90
1301;DHT22;59099;48.806;9.160;2022-08-21T08:12:51;21.00;99.90
1301;DHT22;59099;48.806;9.160;2022-08-21T08:15:23;21.10;99.90
1301;DHT22;59099;48.806;9.160;2022-08-21T08:17:49;21.20;99.90
1301;DHT22;59099;48.806;9.160;2022-08-21T08:20:16;21.30;99.90
1301;DHT22;59099;48.806;9.160;2022-08-21T08:22:44;21.40;99.90
1301;DHT22;59099;48.806;9.160;2022-08-21T08:25:11;21.50;99.90
1301;DHT22;59099;48.806;9.160;2022-08-21T08:27:38;21.50;99.90
1301;DHT22;59099;48.806;9.160;2022-08-21T08:30:06;21.70;99.90
1301;DHT22;59099;48.806;9.160;2022-08-21T08:32:32;21.70;99.90
1301;DHT22;59099;48.806;9.160;2022-08-21T08:34:58;21.80;99.90
1301;DHT22;59099;48.806;9.160;2022-08-21T08:37:24;22.00;99.90
1301;DHT22;59099;48.806;9.160;2022-08-21T08:39:50;22.10;99.90
1301;DHT22;59099;48.806;9.160;2022-08-21T08:42:32;22.20;99.90
1301;DHT22;59099;48.806;9.160;2022-08-21T08:45:08;22.20;99.40
1301;DHT22;59099;48.806;9.160;2022-08-21T08:47:37;22.40;99.20
1301;DHT22;59099;48.806;9.160;2022-08-21T08:50:05;22.50;98.10
1301;DHT22;59099;48.806;9.160;2022-08-21T08:52:40;22.60;98.20
1301;DHT22;59099;48.806;9.160;2022-08-21T08:55:13;22.70;97.10
1301;DHT22;59099;48.806;9.160;2022-08-21T08:57:46;22.80;96.40
1301;DHT22;59099;48.806;9.160;2022-08-21T09:00:14;22.80;95.50
1301;DHT22;59099;48.806;9.160;2022-08-21T09:02:42;22.90;95.00
1301;DHT22;59099;48.806;9.160;2022-08-21T09:05:26;23.10;95.40
1301;DHT22;59099;48.806;9.160;2022-08-21T09:11:28;23.40;96.40
1301;DHT22;59099;48.806;9.160;2022-08-21T09:14:25;23.60;94.40
1301;DHT22;59099;48.806;9.160;2022-08-21T09:16:56;23.70;91.30
1301;DHT22;59099;48.806;9.160;2022-08-21T09:27:14;24.00;90.40
1301;DHT22;59099;48.806;9.160;2022-08-21T09:29:43;24.00;90.80
1301;DHT22;59099;48.806;9.160;2022-08-21T09:32:25;24.20;87.50
1301;DHT22;59099;48.806;9.160;2022-08-21T09:40:45;24.80;83.70
1301;DHT22;59099;48.806;9.160;2022-08-21T09:45:38;25.00;87.00
1301;DHT22;59099;48.806;9.160;2022-08-21T09:50:47;25.30;85.60
1301;DHT22;59099;48.806;9.160;2022-08-21T09:53:28;25.60;91.70
1301;DHT22;59099;48.806;9.160;2022-08-21T09:56:02;25.80;82.70
1301;DHT22;59099;48.806;9.160;2022-08-21T09:58:49;25.80;78.90
1301;DHT22;59099;48.806;9.160;2022-08-21T10:01:21;26.00;94.60
1301;DHT22;59099;48.806;9.160;2022-08-21T10:03:47;26.20;78.70
1301;DHT22;59099;48.806;9.160;2022-08-21T10:06:25;26.20;87.70
1301;DHT22;59099;48.806;9.160;2022-08-21T10:09:13;26.60;81.90
1301;DHT22;59099;48.806;9.160;2022-08-21T10:11:45;27.00;85.20
1301;DHT22;59099;48.806;9.160;2022-08-21T10:14:59;27.60;74.50
1301;DHT22;59099;48.806;9.160;2022-08-21T10:22:32;32.80;60.10
1301;DHT22;59099;48.806;9.160;2022-08-21T10:25:21;34.40;58.60
1301;DHT22;59099;48.806;9.160;2022-08-21T10:30:43;36.70;50.90
1301;DHT22;59099;48.806;9.160;2022-08-21T10:49:27;39.90;48.60
1301;DHT22;59099;48.806;9.160;2022-08-21T10:54:36;40.80;44.30
1301;DHT22;59099;48.806;9.160;2022-08-21T10:57:11;41.30;40.80
1301;DHT22;59099;48.806;9.160;2022-08-21T10:59:47;41.00;40.40
1301;DHT22;59099;48.806;9.160;2022-08-21T11:02:27;41.10;42.20
1301;DHT22;59099;48.806;9.160;2022-08-21T11:08:07;41.30;40.10
1301;DHT22;59099;48.806;9.160;2022-08-21T11:16:41;43.00;40.30
1301;DHT22;59099;48.806;9.160;2022-08-21T11:19:16;42.80;38.20
1301;DHT22;59099;48.806;9.160;2022-08-21T11:27:56;39.10;40.90
1301;DHT22;59099;48.806;9.160;2022-08-21T11:30:14;38.70;41.20
1301;DHT22;59099;48.806;9.160;2022-08-21T11:40:33;40.60;40.10
1301;DHT22;59099;48.806;9.160;2022-08-21T11:45:54;42.00;40.70
1301;DHT22;59099;48.806;9.160;2022-08-21T11:48:41;42.20;37.50
1301;DHT22;59099;48.806;9.160;2022-08-21T11:51:13;42.20;38.20
1301;DHT22;59099;48.806;9.160;2022-08-21T11:56:34;42.60;37.00
1301;DHT22;59099;48.806;9.160;2022-08-21T11:59:06;42.80;39.60
1301;DHT22;59099;48.806;9.160;2022-08-21T12:01:41;42.10;37.40
1301;DHT22;59099;48.806;9.160;2022-08-21T12:04:34;40.60;37.70
1301;DHT22;59099;48.806;9.160;2022-08-21T12:07:30;38.30;39.30
1301;DHT22;59099;48.806;9.160;2022-08-21T12:09:58;36.40;42.10
1301;DHT22;59099;48.806;9.160;2022-08-21T12:12:37;35.50;42.40
1301;DHT22;59099;48.806;9.160;2022-08-21T12:20:44;36.00;45.40
1301;DHT22;59099;48.806;9.160;2022-08-21T12:25:47;37.30;42.20
1301;DHT22;59099;48.806;9.160;2022-08-21T12:28:24;37.70;44.90
1301;DHT22;59099;48.806;9.160;2022-08-21T12:30:51;36.80;41.30
1301;DHT22;59099;48.806;9.160;2022-08-21T12:33:38;36.70;42.00
1301;DHT22;59099;48.806;9.160;2022-08-21T12:36:20;36.50;41.50
1301;DHT22;59099;48.806;9.160;2022-08-21T12:38:59;37.20;41.10
1301;DHT22;59099;48.806;9.160;2022-08-21T12:41:33;38.30;40.80
1301;DHT22;59099;48.806;9.160;2022-08-21T12:44:09;39.50;39.30
1301;DHT22;59099;48.806;9.160;2022-08-21T12:46:42;40.50;38.40
1301;DHT22;59099;48.806;9.160;2022-08-21T12:49:35;41.30;39.80
1301;DHT22;59099;48.806;9.160;2022-08-21T12:52:20;41.80;37.60
1301;DHT22;59099;48.806;9.160;2022-08-21T12:54:46;42.20;36.60
1301;DHT22;59099;48.806;9.160;2022-08-21T12:57:24;42.20;37.50
1301;DHT22;59099;48.806;9.160;2022-08-21T13:02:23;41.40;36.10
1301;DHT22;59099;48.806;9.160;2022-08-21T13:04:50;39.70;36.90
1301;DHT22;59099;48.806;9.160;2022-08-21T13:07:25;38.40;38.10
1301;DHT22;59099;48.806;9.160;2022-08-21T13:09:55;37.20;40.00
1301;DHT22;59099;48.806;9.160;2022-08-21T13:12:23;37.10;40.50
1301;DHT22;59099;48.806;9.160;2022-08-21T13:14:50;36.80;41.00
1301;DHT22;59099;48.806;9.160;2022-08-21T13:17:19;36.60;44.80
1301;DHT22;59099;48.806;9.160;2022-08-21T13:19:57;36.10;43.00
1301;DHT22;59099;48.806;9.160;2022-08-21T13:22:24;36.50;42.00
1301;DHT22;59099;48.806;9.160;2022-08-21T13:24:50;37.30;43.10
1301;DHT22;59099;48.806;9.160;2022-08-21T13:27:28;38.20;41.90
1301;DHT22;59099;48.806;9.160;2022-08-21T13:30:07;39.10;39.10
1301;DHT22;59099;48.806;9.160;2022-08-21T13:32:40;40.10;38.60
1301;DHT22;59099;48.806;9.160;2022-08-21T13:35:17;41.10;38.40
1301;DHT22;59099;48.806;9.160;2022-08-21T13:37:45;41.90;36.70
1301;DHT22;59099;48.806;9.160;2022-08-21T13:40:25;42.90;39.10
1301;DHT22;59099;48.806;9.160;2022-08-21T13:42:52;42.60;35.30
1301;DHT22;59099;48.806;9.160;2022-08-21T13:45:30;42.10;37.00
1301;DHT22;59099;48.806;9.160;2022-08-21T13:47:56;42.90;36.40
1301;DHT22;59099;48.806;9.160;2022-08-21T13:50:25;43.70;35.10
1301;DHT22;59099;48.806;9.160;2022-08-21T13:55:48;44.20;36.00
1301;DHT22;59099;48.806;9.160;2022-08-21T13:58:43;44.50;35.10
1301;DHT22;59099;48.806;9.160;2022-08-21T14:03:49;42.30;36.00
1301;DHT22;59099;48.806;9.160;2022-08-21T14:06:21;42.30;37.20
1301;DHT22;59099;48.806;9.160;2022-08-21T14:11:19;39.30;36.90
1301;DHT22;59099;48.806;9.160;2022-08-21T14:13:58;39.10;39.80
1301;DHT22;59099;48.806;9.160;2022-08-21T14:16:28;39.40;38.40
1301;DHT22;59099;48.806;9.160;2022-08-21T14:21:33;37.60;37.70
1301;DHT22;59099;48.806;9.160;2022-08-21T14:26:51;34.10;42.00
1301;DHT22;59099;48.806;9.160;2022-08-21T14:29:19;34.30;43.70
1301;DHT22;59099;48.806;9.160;2022-08-21T14:31:55;35.30;41.60
1301;DHT22;59099;48.806;9.160;2022-08-21T14:34:24;36.30;39.60
1301;DHT22;59099;48.806;9.160;2022-08-21T14:36:50;37.20;45.60
1301;DHT22;59099;48.806;9.160;2022-08-21T14:39:16;38.00;39.30
1301;DHT22;59099;48.806;9.160;2022-08-21T14:41:43;39.00;38.60
1301;DHT22;59099;48.806;9.160;2022-08-21T14:44:11;39.50;38.60
1301;DHT22;59099;48.806;9.160;2022-08-21T14:46:38;40.20;38.20
1301;DHT22;59099;48.806;9.160;2022-08-21T14:49:04;41.00;37.80
1301;DHT22;59099;48.806;9.160;2022-08-21T14:51:30;40.90;35.50
1301;DHT22;59099;48.806;9.160;2022-08-21T14:53:56;40.30;36.00
1301;DHT22;59099;48.806;9.160;2022-08-21T14:56:22;41.00;36.70
1301;DHT22;59099;48.806;9.160;2022-08-21T14:58:50;42.00;36.40
1301;DHT22;59099;48.806;9.160;2022-08-21T15:01:18;42.80;37.20
1301;DHT22;59099;48.806;9.160;2022-08-21T15:03:44;43.40;35.20
1301;DHT22;59099;48.806;9.160;2022-08-21T15:06:11;44.20;39.60
1301;DHT22;59099;48.806;9.160;2022-08-21T15:08:37;44.20;35.00
1301;DHT22;59099;48.806;9.160;2022-08-21T15:11:06;44.30;33.80
1301;DHT22;59099;48.806;9.160;2022-08-21T15:13:33;44.50;33.60
1301;DHT22;59099;48.806;9.160;2022-08-21T15:15:59;43.90;32.80
1301;DHT22;59099;48.806;9.160;2022-08-21T15:18:26;43.80;33.50
1301;DHT22;59099;48.806;9.160;2022-08-21T15:20:53;42.80;33.20
1301;DHT22;59099;48.806;9.160;2022-08-21T15:23:19;41.20;34.70
1301;DHT22;59099;48.806;9.160;2022-08-21T15:25:47;39.90;34.90
1301;DHT22;59099;48.806;9.160;2022-08-21T15:28:14;38.30;37.40
1301;DHT22;59099;48.806;9.160;2022-08-21T15:30:41;36.90;38.80
1301;DHT22;59099;48.806;9.160;2022-08-21T15:33:08;37.10;39.10
1301;DHT22;59099;48.806;9.160;2022-08-21T15:35:34;38.30;40.80
1301;DHT22;59099;48.806;9.160;2022-08-21T15:38:00;39.10;36.80
1301;DHT22;59099;48.806;9.160;2022-08-21T15:40:26;39.40;39.50
1301;DHT22;59099;48.806;9.160;2022-08-21T15:42:57;39.70;36.40
1301;DHT22;59099;48.806;9.160;2022-08-21T15:45:23;40.80;37.20
1301;DHT22;59099;48.806;9.160;2022-08-21T15:47:50;41.40;34.80
1301;DHT22;59099;48.806;9.160;2022-08-21T15:50:16;41.90;36.90
1301;DHT22;59099;48.806;9.160;2022-08-21T15:52:42;42.40;36.60
1301;DHT22;59099;48.806;9.160;2022-08-21T15:55:09;43.10;36.30
1301;DHT22;59099;48.806;9.160;2022-08-21T15:57:35;43.40;34.50
1301;DHT22;59099;48.806;9.160;2022-08-21T16:00:25;43.60;34.40
1301;DHT22;59099;48.806;9.160;2022-08-21T16:02:56;43.40;33.20
1301;DHT22;59099;48.806;9.160;2022-08-21T16:05:23;42.50;33.90
1301;DHT22;59099;48.806;9.160;2022-08-21T16:07:50;41.80;34.60
1301;DHT22;59099;48.806;9.160;2022-08-21T16:10:19;41.80;34.50
1301;DHT22;59099;48.806;9.160;2022-08-21T16:12:48;42.20;35.00
1301;DHT22;59099;48.806;9.160;2022-08-21T16:15:16;42.00;33.60
1301;DHT22;59099;48.806;9.160;2022-08-21T16:17:45;42.20;34.60
1301;DHT22;59099;48.806;9.160;2022-08-21T16:20:17;41.70;34.30
1301;DHT22;59099;48.806;9.160;2022-08-21T16:22:43;40.50;34.20
1301;DHT22;59099;48.806;9.160;2022-08-21T16:25:09;40.30;35.00
1301;DHT22;59099;48.806;9.160;2022-08-21T16:27:35;40.00;35.60
1301;DHT22;59099;48.806;9.160;2022-08-21T16:30:03;39.90;35.70
1301;DHT22;59099;48.806;9.160;2022-08-21T16:32:30;39.90;35.70
1301;DHT22;59099;48.806;9.160;2022-08-21T16:34:56;40.20;36.80
1301;DHT22;59099;48.806;9.160;2022-08-21T16:37:25;40.10;36.00
1301;DHT22;59099;48.806;9.160;2022-08-21T16:39:50;39.60;37.90
1301;DHT22;59099;48.806;9.160;2022-08-21T16:42:20;39.30;36.10
1301;DHT22;59099;48.806;9.160;2022-08-21T16:44:47;39.20;36.60
1301;DHT22;59099;48.806;9.160;2022-08-21T16:47:13;38.60;36.10
1301;DHT22;59099;48.806;9.160;2022-08-21T16:49:38;38.20;36.40
1301;DHT22;59099;48.806;9.160;2022-08-21T16:52:04;38.00;36.70
1301;DHT22;59099;48.806;9.160;2022-08-21T16:54:31;37.80;37.40
1301;DHT22;59099;48.806;9.160;2022-08-21T16:56:57;37.50;36.70
1301;DHT22;59099;48.806;9.160;2022-08-21T16:59:23;37.30;38.10
1301;DHT22;59099;48.806;9.160;2022-08-21T17:01:51;37.10;37.50
1301;DHT22;59099;48.806;9.160;2022-08-21T17:04:18;37.10;37.50
1301;DHT22;59099;48.806;9.160;2022-08-21T17:06:45;36.50;37.50
1301;DHT22;59099;48.806;9.160;2022-08-21T17:09:12;36.10;38.40
1301;DHT22;59099;48.806;9.160;2022-08-21T17:11:40;36.00;39.70
1301;DHT22;59099;48.806;9.160;2022-08-21T17:14:16;35.80;37.70
1301;DHT22;59099;48.806;9.160;2022-08-21T17:16:47;35.60;41.20
1301;DHT22;59099;48.806;9.160;2022-08-21T17:19:14;35.30;39.10
1301;DHT22;59099;48.806;9.160;2022-08-21T17:21:41;34.70;39.60
1301;DHT22;59099;48.806;9.160;2022-08-21T17:24:07;34.40;39.20
1301;DHT22;59099;48.806;9.160;2022-08-21T17:26:34;34.20;39.90
1301;DHT22;59099;48.806;9.160;2022-08-21T17:29:01;33.90;39.50
1301;DHT22;59099;48.806;9.160;2022-08-21T17:31:28;33.70;40.40
1301;DHT22;59099;48.806;9.160;2022-08-21T17:33:54;33.30;40.80
1301;DHT22;59099;48.806;9.160;2022-08-21T17:36:25;33.10;40.70
1301;DHT22;59099;48.806;9.160;2022-08-21T17:38:51;32.60;41.10